Malin, OR (97632)

10:56 AM PDT on August 03, 2015 (GMT -0700)
Crystal Springs | | Change Station
CLOSE
Current Station
Personal Weather Station
Location: Klamath Falls, OR
Elevation: 4103 ft
Nearby Weather Stations
Active Advisory: Fire Weather Warning

Elev 4103 ft 42.16 °N, 121.66 °W | Updated 11 minutes ago

Clear
Clear
76.8 °F
Feels Like 78 °F
N
5.3
Wind Variable Wind from NE
Gusts 8.3 mph

Today
High -- | Low -- °F
--% Chance of Precip.
Yesterday
High -- | Low -- °F
Precip. -- in
6:00 AM 8:22 PM
Waning Gibbous, 85% visible
Pressure 29.92 in
Visibility 10.0 miles
Clouds Clear
Heat Index 78 °F
Dew Point 56 °F
Humidity 48%
Rainfall 0.00 in
Snow Depth Not available.
UV 8 out of 12
Pollen 4.10 out of 12
Air Quality Not available.
Flu Activity Not available.
METAR KLMT 031753Z VRB04KT 10SM CLR 25/10 A3005 RMK AO2 SLP130 T02500100 10250 20122 58002

More Conditions Fewer Conditions

Pressure 29.92 in
Visibility 10.0 miles
Clouds Clear
Heat Index 78 °F
Dew Point 56 °F
Humidity 48%
Rainfall 0.00 in
Snow Depth Not available.
UV 8 out of 12
Pollen 4.10 out of 12
Air Quality Not available.
Flu Activity Not available.
METAR KLMT 031753Z VRB04KT 10SM CLR 25/10 A3005 RMK AO2 SLP130 T02500100 10250 20122 58002

More Conditions Fewer Conditions

10-Day Weather Forecast

×

Almanac

Astronomy

Aug. 03, 2015 Rise Set
Actual Time
Civil Twilight
Nautical Twilight
Astronomical Twilight
Moon
Length of Visible Light
Length of Day
Tomorrow will be .
, % of the Moon is Illuminated

Today's Extremes

State Highs State Lows

Community

WunderPhotos

Upload Photos

1,843,694 photos uploaded!

WunderBlogs® & News

Nearby

Air Quality

  Air Quality AQ Index Pollutant
Not available.

Snow Depth

Station Depth Elevation

Earthquake Activity

City Distance Mag. Time & Date
Minimum magnitude displayed is 2.5.

Coastal Water Temperatures

Place Temperature

Stations

Nearby Weather Stations

Station Location Temp. Windchill Dew Point Humidity Wind Precip. Elev Updated Type
                   
Fire Weather Warning
Statement as of 3:04 AM PDT on August 03, 2015

... Red flag warning remains in effect from 2 PM this afternoon to
11 PM PDT this evening...
... Red flag warning for this morning is cancelled...

The National Weather Service in Medford has cancelled the red flag
warning for this morning. A red flag warning remains in effect for
this afternoon and evening.

* Thunderstorms: scattered thunderstorms are expected to redevelop
this afternoon and continue into the evening.

* Impacts: increasing thunderstorm activity may lead to new fire
starts and will create erratic fire behavior on new and existing
fires.

* Affected area: in south central or... the northern portion of
fire weather zone 624.

* Counties affected: Klamath... lake.

Precautionary/preparedness actions...

A red flag warning means that extreme fire conditions are
occurring or imminent.